Volcan De Tindaya — ECCK — position and weather

sailwx.info

Track history (hours):
 
Tides and Currents Weather Stations Pressure Air Temp Water Temp Dewpoint Dewpoint Depression Visibility Wind Speed Wind Dir Waves Ship Positions

Volcan De Tindaya

Last reported at 2018-Feb-18 20:43 UTC. Time now 2018-Feb-22 13:14 UTC.
Position N 28°51' W 013°50'.

Length 78 m; draft 3.5 m.

Type: Passenger vessel. MMSI: 224127000.

Date/timePositionNaut miles runAvg speedWind from/ knotsBaromVisibWave heightAir tempDewpointWater temp
2018-Feb-18 20:43N 28°51' W 013°50'6 0.2
2018-Feb-17 09:29N 28°46' W 013°51'6 1.6
2018-Feb-17 05:49N 28°52' W 013°50'0 0.0
2018-Feb-17 05:30N 28°52' W 013°50'0 0.0
2018-Feb-17 05:00N 28°52' W 013°50'0 0.0
2018-Feb-17 04:30N 28°52' W 013°50'0 0.0
2018-Feb-17 04:00N 28°52' W 013°50'0 0.0
2018-Feb-17 03:30N 28°52' W 013°50'0 0.0
2018-Feb-17 02:49N 28°52' W 013°50'0 0.0
2018-Feb-17 01:37N 28°52' W 013°50'0 0.0
2018-Feb-17 01:30N 28°52' W 013°50'0 0.0
2018-Feb-17 01:00N 28°52' W 013°50'0 0.0
2018-Feb-17 00:30N 28°52' W 013°50'0 0.0
2018-Feb-17 00:00N 28°52' W 013°50'0 0.0
2018-Feb-16 23:30N 28°52' W 013°50'0 0.0
2018-Feb-16 22:55N 28°52' W 013°50'0 0.0
2018-Feb-16 22:29N 28°52' W 013°50'7 2.6
2018-Feb-16 19:39N 28°44' W 013°52'0 0.0
2018-Feb-16 08:10N 28°45' W 013°51'0 2.2
2018-Feb-16 07:57N 28°44' W 013°52'1 2.4
2018-Feb-16 07:28N 28°46' W 013°51'6 0.7
2018-Feb-15 22:32N 28°52' W 013°50'0 0.0
2018-Feb-15 22:30N 28°52' W 013°50'0 0.0
2018-Feb-15 21:38N 28°52' W 013°50'0 0.0
2018-Feb-15 21:28N 28°52' W 013°50'0 0.0
2018-Feb-15 20:58N 28°52' W 013°50'2 4.2
2018-Feb-15 20:28N 28°50' W 013°50'511.5
2018-Feb-15 20:00N 28°44' W 013°52'0 0.9
2018-Feb-15 19:30N 28°45' W 013°51'712.8
2018-Feb-15 18:58N 28°52' W 013°50'2 4.5
2018-Feb-15 18:27N 28°49' W 013°50'5 6.4
2018-Feb-15 17:40N 28°44' W 013°52'1 5.0
2018-Feb-15 17:28N 28°45' W 013°51'3 2.9
2018-Feb-15 16:23N 28°48' W 013°50'4 1.7
2018-Feb-15 13:55N 28°44' W 013°52'3 6.7
2018-Feb-15 13:30N 28°47' W 013°51'4 6.1
2018-Feb-15 12:49N 28°51' W 013°50'615.3
2018-Feb-15 12:27N 28°46' W 013°51'1 2.3
2018-Feb-15 11:55N 28°44' W 013°52'2 5.3
2018-Feb-15 11:27N 28°47' W 013°51'5 5.9
2018-Feb-15 10:37N 28°52' W 013°50'212.2
2018-Feb-15 10:28N 28°50' W 013°50'4 4.4
2018-Feb-15 09:33N 28°46' W 013°51'114.9
2018-Feb-15 09:28N 28°47' W 013°51'5 8.3
2018-Feb-15 08:54N 28°52' W 013°50'3 6.0
2018-Feb-15 08:29N 28°49' W 013°50'5 8.2
2018-Feb-15 07:54N 28°44' W 013°52'1 3.1
2018-Feb-15 07:26N 28°46' W 013°51'610.5
2018-Feb-15 06:53N 28°52' W 013°50'0 0.0
2018-Feb-15 05:45N 28°52' W 013°50'0 0.0
2018-Feb-15 05:30N 28°52' W 013°50'0 0.0
2018-Feb-15 05:00N 28°52' W 013°50'0 0.0
2018-Feb-15 04:30N 28°52' W 013°50'0 0.0
2018-Feb-15 04:01N 28°52' W 013°50'0 0.0
2018-Feb-15 03:30N 28°52' W 013°50'0 0.0
2018-Feb-15 03:01N 28°52' W 013°50'0 0.0
2018-Feb-15 02:23N 28°52' W 013°50'0 0.0
2018-Feb-15 02:00N 28°52' W 013°50'0 0.0
2018-Feb-15 01:12N 28°52' W 013°50'0 0.0
2018-Feb-15 00:46N 28°52' W 013°50'0 0.0
2018-Feb-15 00:30N 28°52' W 013°50'0 0.0
2018-Feb-15 00:00N 28°52' W 013°50'0 0.0
2018-Feb-14 23:30N 28°52' W 013°50'0 0.0
2018-Feb-14 23:00N 28°52' W 013°50'0 0.0
2018-Feb-14 22:30N 28°52' W 013°50'0 0.0
2018-Feb-14 21:59N 28°52' W 013°50'1 0.4
2018-Feb-14 20:34N 28°51' W 013°50'415.1
2018-Feb-14 20:17N 28°47' W 013°51'3 4.8
2018-Feb-14 19:44N 28°44' W 013°52'1 4.0
2018-Feb-14 19:28N 28°45' W 013°51'4 4.5
2018-Feb-14 18:29N 28°50' W 013°50'6 7.2
2018-Feb-14 17:43N 28°44' W 013°52'1 5.2
2018-Feb-14 17:30N 28°46' W 013°51'6 7.8
2018-Feb-14 16:42N 28°52' W 013°50'2 9.1
2018-Feb-14 16:30N 28°50' W 013°50'5 6.0
2018-Feb-14 15:39N 28°45' W 013°51'215.2
2018-Feb-14 15:30N 28°47' W 013°51'4 5.4
2018-Feb-14 14:41N 28°52' W 013°50'1 8.6
2018-Feb-14 14:30N 28°50' W 013°50'6 8.1
2018-Feb-14 13:47N 28°44' W 013°52'1 4.8
2018-Feb-14 13:30N 28°46' W 013°51'612.1
2018-Feb-14 13:00N 28°52' W 013°50'5 9.3
2018-Feb-14 12:30N 28°47' W 013°51'3 4.1
2018-Feb-14 11:51N 28°44' W 013°52'1 3.3
2018-Feb-14 11:30N 28°45' W 013°51'6 6.9
2018-Feb-14 10:37N 28°51' W 013°50'214.9
2018-Feb-14 10:29N 28°50' W 013°50'510.7
2018-Feb-14 09:59N 28°44' W 013°52'1 1.8
2018-Feb-14 09:30N 28°45' W 013°51'6 7.1
2018-Feb-14 08:38N 28°51' W 013°50'7 7.8
2018-Feb-14 07:45N 28°44' W 013°52'7 0.6
2018-Feb-13 20:36N 28°51' W 013°50'315.3
2018-Feb-13 20:23N 28°48' W 013°50'3 6.1
2018-Feb-13 19:49N 28°44' W 013°52'7 5.5
2018-Feb-13 18:35N 28°51' W 013°50'115.2
2018-Feb-13 18:30N 28°50' W 013°50'6 8.6
2018-Feb-13 17:51N 28°44' W 013°52'3 6.6
2018-Feb-13 17:23N 28°47' W 013°51'4 0.4
2018-Feb-13 08:36N 28°51' W 013°50'0 0.0
2018-Feb-11 18:34N 28°51' W 013°50'314.9
2018-Feb-11 18:21N 28°48' W 013°50'  
Track history (hours):
 
Tides and Currents Weather Stations Pressure Air Temp Water Temp Dewpoint Dewpoint Depression Visibility Wind Speed Wind Dir Waves Ship Positions

Volcan De Tindaya

Last reported at 2018-Feb-18 20:43 UTC. Time now 2018-Feb-22 13:14 UTC.
Position N 28°51' W 013°50'.

Length 78 m; draft 3.5 m.

Type: Passenger vessel. MMSI: 224127000.

Date/timePositionNaut miles runAvg speedWind from/ knotsBaromVisibWave heightAir tempDewpointWater temp
2018-Feb-18 20:43N 28°51' W 013°50'6 0.2
2018-Feb-17 09:29N 28°46' W 013°51'6 1.6
2018-Feb-17 05:49N 28°52' W 013°50'0 0.0
2018-Feb-17 05:30N 28°52' W 013°50'0 0.0
2018-Feb-17 05:00N 28°52' W 013°50'0 0.0
2018-Feb-17 04:30N 28°52' W 013°50'0 0.0
2018-Feb-17 04:00N 28°52' W 013°50'0 0.0
2018-Feb-17 03:30N 28°52' W 013°50'0 0.0
2018-Feb-17 02:49N 28°52' W 013°50'0 0.0
2018-Feb-17 01:37N 28°52' W 013°50'0 0.0
2018-Feb-17 01:30N 28°52' W 013°50'0 0.0
2018-Feb-17 01:00N 28°52' W 013°50'0 0.0
2018-Feb-17 00:30N 28°52' W 013°50'0 0.0
2018-Feb-17 00:00N 28°52' W 013°50'0 0.0
2018-Feb-16 23:30N 28°52' W 013°50'0 0.0
2018-Feb-16 22:55N 28°52' W 013°50'0 0.0
2018-Feb-16 22:29N 28°52' W 013°50'7 2.6
2018-Feb-16 19:39N 28°44' W 013°52'0 0.0
2018-Feb-16 08:10N 28°45' W 013°51'0 2.2
2018-Feb-16 07:57N 28°44' W 013°52'1 2.4
2018-Feb-16 07:28N 28°46' W 013°51'6 0.7
2018-Feb-15 22:32N 28°52' W 013°50'0 0.0
2018-Feb-15 22:30N 28°52' W 013°50'0 0.0
2018-Feb-15 21:38N 28°52' W 013°50'0 0.0
2018-Feb-15 21:28N 28°52' W 013°50'0 0.0
2018-Feb-15 20:58N 28°52' W 013°50'2 4.2
2018-Feb-15 20:28N 28°50' W 013°50'511.5
2018-Feb-15 20:00N 28°44' W 013°52'0 0.9
2018-Feb-15 19:30N 28°45' W 013°51'712.8
2018-Feb-15 18:58N 28°52' W 013°50'2 4.5
2018-Feb-15 18:27N 28°49' W 013°50'5 6.4
2018-Feb-15 17:40N 28°44' W 013°52'1 5.0
2018-Feb-15 17:28N 28°45' W 013°51'3 2.9
2018-Feb-15 16:23N 28°48' W 013°50'4 1.7
2018-Feb-15 13:55N 28°44' W 013°52'3 6.7
2018-Feb-15 13:30N 28°47' W 013°51'4 6.1
2018-Feb-15 12:49N 28°51' W 013°50'615.3
2018-Feb-15 12:27N 28°46' W 013°51'1 2.3
2018-Feb-15 11:55N 28°44' W 013°52'2 5.3
2018-Feb-15 11:27N 28°47' W 013°51'5 5.9
2018-Feb-15 10:37N 28°52' W 013°50'212.2
2018-Feb-15 10:28N 28°50' W 013°50'4 4.4
2018-Feb-15 09:33N 28°46' W 013°51'114.9
2018-Feb-15 09:28N 28°47' W 013°51'5 8.3
2018-Feb-15 08:54N 28°52' W 013°50'3 6.0
2018-Feb-15 08:29N 28°49' W 013°50'5 8.2
2018-Feb-15 07:54N 28°44' W 013°52'1 3.1
2018-Feb-15 07:26N 28°46' W 013°51'610.5
2018-Feb-15 06:53N 28°52' W 013°50'0 0.0
2018-Feb-15 05:45N 28°52' W 013°50'0 0.0
2018-Feb-15 05:30N 28°52' W 013°50'0 0.0
2018-Feb-15 05:00N 28°52' W 013°50'0 0.0
2018-Feb-15 04:30N 28°52' W 013°50'0 0.0
2018-Feb-15 04:01N 28°52' W 013°50'0 0.0
2018-Feb-15 03:30N 28°52' W 013°50'0 0.0
2018-Feb-15 03:01N 28°52' W 013°50'0 0.0
2018-Feb-15 02:23N 28°52' W 013°50'0 0.0
2018-Feb-15 02:00N 28°52' W 013°50'0 0.0
2018-Feb-15 01:12N 28°52' W 013°50'0 0.0
2018-Feb-15 00:46N 28°52' W 013°50'0 0.0
2018-Feb-15 00:30N 28°52' W 013°50'0 0.0
2018-Feb-15 00:00N 28°52' W 013°50'0 0.0
2018-Feb-14 23:30N 28°52' W 013°50'0 0.0
2018-Feb-14 23:00N 28°52' W 013°50'0 0.0
2018-Feb-14 22:30N 28°52' W 013°50'0 0.0
2018-Feb-14 21:59N 28°52' W 013°50'1 0.4
2018-Feb-14 20:34N 28°51' W 013°50'415.1
2018-Feb-14 20:17N 28°47' W 013°51'3 4.8
2018-Feb-14 19:44N 28°44' W 013°52'1 4.0
2018-Feb-14 19:28N 28°45' W 013°51'4 4.5
2018-Feb-14 18:29N 28°50' W 013°50'6 7.2
2018-Feb-14 17:43N 28°44' W 013°52'1 5.2
2018-Feb-14 17:30N 28°46' W 013°51'6 7.8
2018-Feb-14 16:42N 28°52' W 013°50'2 9.1
2018-Feb-14 16:30N 28°50' W 013°50'5 6.0
2018-Feb-14 15:39N 28°45' W 013°51'215.2
2018-Feb-14 15:30N 28°47' W 013°51'4 5.4
2018-Feb-14 14:41N 28°52' W 013°50'1 8.6
2018-Feb-14 14:30N 28°50' W 013°50'6 8.1
2018-Feb-14 13:47N 28°44' W 013°52'1 4.8
2018-Feb-14 13:30N 28°46' W 013°51'612.1
2018-Feb-14 13:00N 28°52' W 013°50'5 9.3
2018-Feb-14 12:30N 28°47' W 013°51'3 4.1
2018-Feb-14 11:51N 28°44' W 013°52'1 3.3
2018-Feb-14 11:30N 28°45' W 013°51'6 6.9
2018-Feb-14 10:37N 28°51' W 013°50'214.9
2018-Feb-14 10:29N 28°50' W 013°50'510.7
2018-Feb-14 09:59N 28°44' W 013°52'1 1.8
2018-Feb-14 09:30N 28°45' W 013°51'6 7.1
2018-Feb-14 08:38N 28°51' W 013°50'7 7.8
2018-Feb-14 07:45N 28°44' W 013°52'7 0.6
2018-Feb-13 20:36N 28°51' W 013°50'315.3
2018-Feb-13 20:23N 28°48' W 013°50'3 6.1
2018-Feb-13 19:49N 28°44' W 013°52'7 5.5
2018-Feb-13 18:35N 28°51' W 013°50'115.2
2018-Feb-13 18:30N 28°50' W 013°50'6 8.6
2018-Feb-13 17:51N 28°44' W 013°52'3 6.6
2018-Feb-13 17:23N 28°47' W 013°51'4 0.4
2018-Feb-13 08:36N 28°51' W 013°50'0 0.0
2018-Feb-11 18:34N 28°51' W 013°50'314.9
2018-Feb-11 18:21N 28°48' W 013°50'  

Dump ship's entire track history